Time;durP1;ratioP1;P1;durP2;ratioP2;P2;SDS_P1;SDS_P2;PMS_P1;PMS_P2;Temp;Humidity;BMP_temperature;BMP_pressure;BME280_temperature;BME280_humidity;BME280_pressure;Samples;Min_cycle;Max_cycle;Signal;HPM_P1;HPM_P2
2021/04/02 03:51:36;;;;;;;9.68;5.30;;;;;;;15.96;44.22;100001.31;5318468;26;20060;-83
2021/04/02 03:54:06;;;;;;;11.05;5.47;;;;;;;15.97;43.77;100005.69;5324182;26;20455;-83
2021/04/02 03:56:35;;;;;;;10.13;5.37;;;;;;;15.76;44.97;100009.91;5324769;26;20068;-83
2021/04/02 03:59:04;;;;;;;12.73;6.90;;;;;;;15.84;44.40;100008.75;5344102;26;20060;-82
2021/04/02 04:01:38;;;;;;;10.50;6.75;;;;;;;15.77;44.73;100011.69;5343726;26;20083;-83
2021/04/02 04:04:05;;;;;;;11.65;6.53;;;;;;;15.92;45.54;100016.44;5344212;26;20495;-82
2021/04/02 04:06:34;;;;;;;12.48;7.30;;;;;;;15.87;45.30;100013.09;5345434;26;20145;-83
2021/04/02 04:09:22;;;;;;;15.15;8.05;;;;;;;15.47;46.29;100019.66;5345553;26;20135;-83
2021/04/02 04:11:49;;;;;;;11.12;6.53;;;;;;;15.54;46.38;100020.34;5345419;26;20106;-83
2021/04/02 04:14:17;;;;;;;18.10;7.00;;;;;;;15.63;46.28;100020.88;5345421;26;20052;-83
2021/04/02 04:16:46;;;;;;;15.23;9.70;;;;;;;15.50;46.38;100013.37;5345541;26;20121;-83
2021/04/02 04:19:16;;;;;;;14.93;8.45;;;;;;;15.33;46.72;100016.59;5325604;26;20393;-83
2021/04/02 04:21:44;;;;;;;;;;;;;;;15.63;46.00;100015.59;5345775;26;20993;-83
2021/04/02 04:24:15;;;;;;;13.27;8.18;;;;;;;15.52;46.17;100011.56;5345309;26;20024;-83
2021/04/02 04:26:47;;;;;;;14.38;8.70;;;;;;;15.52;45.88;100016.84;5345762;26;20122;-83
2021/04/02 04:29:20;;;;;;;16.30;10.45;;;;;;;15.43;46.27;100016.22;5325851;26;20421;-83
2021/04/02 04:31:48;;;;;;;17.75;9.73;;;;;;;15.16;47.23;100020.63;5345992;26;20619;-84
2021/04/02 04:34:17;;;;;;;19.23;11.85;;;;;;;15.32;46.71;100021.00;5345577;26;20052;-83
2021/04/02 04:36:45;;;;;;;19.02;9.93;;;;;;;15.18;46.50;100021.44;5345613;26;20205;-83
2021/04/02 04:39:12;;;;;;;13.13;8.23;;;;;;;15.31;46.56;100026.34;5344769;26;20057;-83
2021/04/02 04:41:42;;;;;;;17.27;10.25;;;;;;;15.37;45.36;100024.38;5325404;26;20078;-84
2021/04/02 04:44:12;;;;;;;15.05;9.55;;;;;;;15.40;46.18;100026.06;5345063;26;20067;-83
2021/04/02 04:46:39;;;;;;;21.80;11.50;;;;;;;15.42;46.57;100029.53;5325249;26;20637;-83
2021/04/02 04:49:05;;;;;;;20.85;9.60;;;;;;;15.45;46.27;100025.00;5325492;26;20067;-82
2021/04/02 04:51:33;;;;;;;22.10;11.10;;;;;;;15.32;46.67;100026.28;5344551;26;20463;-83
2021/04/02 04:54:01;;;;;;;18.40;9.88;;;;;;;15.34;46.74;100023.59;5324637;26;20391;-83
2021/04/02 04:56:29;;;;;;;18.45;11.75;;;;;;;15.08;47.55;100033.19;5324683;26;20494;-84
2021/04/02 04:59:01;;;;;;;19.83;11.48;;;;;;;15.21;47.19;100031.94;5324450;26;20064;-83
2021/04/02 06:31:18;;;;;;;23.73;15.00;;;;;;;15.21;50.45;100121.91;5342109;26;20064;-83
2021/04/02 06:33:54;;;;;;;27.48;16.35;;;;;;;15.48;49.63;100129.94;5322922;26;20053;-84
2021/04/02 06:36:28;;;;;;;25.65;16.35;;;;;;;15.13;50.44;100133.62;5322460;26;20383;-84
2021/04/02 07:52:40;;;;;;;47.33;23.30;;;;;;;16.33;50.15;100191.78;5319234;26;20060;-82
2021/04/02 07:55:17;;;;;;;33.45;23.65;;;;;;;16.51;50.15;100193.81;5341253;26;20052;-82
2021/04/02 07:58:07;;;;;;;28.42;22.23;;;;;;;16.03;51.08;100197.16;5341375;26;20068;-82
2021/04/02 08:00:35;;;;;;;30.98;23.55;;;;;;;16.19;50.77;100204.62;5321300;26;20112;-82
2021/04/02 08:03:09;;;;;;;32.88;24.55;;;;;;;16.61;49.94;100190.84;5341150;26;20119;-82
2021/04/02 08:05:38;;;;;;;35.70;26.52;;;;;;;16.86;48.80;100186.47;5321343;26;20078;-82
2021/04/02 08:08:08;;;;;;;31.08;25.75;;;;;;;16.27;50.45;100207.91;5340990;26;20396;-82
2021/04/02 08:10:35;;;;;;;30.50;23.67;;;;;;;16.15;50.86;100211.81;5341506;26;20048;-82
2021/04/02 08:13:15;;;;;;;67.22;26.42;;;;;;;16.69;50.00;100207.38;5341022;26;20052;-83
2021/04/02 08:15:42;;;;;;;45.35;22.60;;;;;;;17.26;47.84;100214.25;5340823;26;20056;-82
2021/04/02 08:18:18;;;;;;;28.92;20.45;;;;;;;17.28;47.09;100211.53;5341171;26;20382;-82
2021/04/02 08:20:49;;;;;;;26.27;21.05;;;;;;;17.30;46.70;100213.22;5341978;26;20100;-83
2021/04/02 08:23:16;;;;;;;31.85;22.10;;;;;;;17.13;46.86;100212.97;5341048;26;20087;-82
2021/04/02 08:25:42;;;;;;;28.30;20.17;;;;;;;17.16;46.78;100218.16;5341174;26;20169;-82
2021/04/02 08:28:11;;;;;;;28.30;21.67;;;;;;;18.25;45.33;100209.59;5341330;26;20064;-81
2021/04/02 08:30:40;;;;;;;30.27;20.12;;;;;;;18.47;44.08;100200.72;5341179;26;20044;-81
2021/04/02 08:33:07;;;;;;;33.85;19.95;;;;;;;18.88;42.88;100192.81;5341208;26;20383;-81
2021/04/02 08:35:34;;;;;;;28.45;21.00;;;;;;;19.11;42.40;100195.34;5342147;26;20068;-81
2021/04/02 09:20:15;;;;;;;;;;;;;;;;;;;;;
2021/04/02 09:26:16;;;;;;;28.05;19.65;;;;;;;20.76;36.76;100201.78;5145690;27;20119;-82
2021/04/02 09:28:43;;;;;;;26.12;19.70;;;;;;;20.61;37.87;100200.75;5162966;27;20493;-82
2021/04/02 09:54:18;;;;;;;48.75;21.65;;;;;;;20.20;39.07;100209.84;5336213;26;20088;-83
2021/04/02 09:56:46;;;;;;;27.42;20.08;;;;;;;20.61;38.61;100219.44;5342639;26;20057;-83
2021/04/02 09:59:14;;;;;;;25.70;18.85;;;;;;;21.02;37.48;100222.69;5342334;26;20323;-82
2021/04/02 10:01:41;;;;;;;25.70;20.70;;;;;;;20.41;39.04;100210.63;5342003;26;20060;-82
2021/04/02 10:04:09;;;;;;;25.98;19.87;;;;;;;20.42;38.25;100208.81;5342312;26;20060;-83
2021/04/02 10:06:37;;;;;;;24.80;19.65;;;;;;;20.10;38.88;100218.38;5322568;26;20482;-82
2021/04/02 10:09:05;;;;;;;23.35;17.87;;;;;;;19.94;39.83;100213.78;5322035;26;20109;-82
2021/04/02 10:11:34;;;;;;;23.52;17.48;;;;;;;20.72;38.51;100205.56;5342339;26;20361;-83
2021/04/02 10:14:01;;;;;;;22.95;17.85;;;;;;;20.97;36.53;100202.47;5342171;26;20203;-82
2021/04/02 10:16:27;;;;;;;24.05;19.50;;;;;;;20.67;37.32;100212.94;5342319;26;20052;-83
2021/04/02 10:18:54;;;;;;;23.27;18.95;;;;;;;21.16;36.44;100192.56;5341960;26;20406;-83
2021/04/02 10:21:23;;;;;;;27.23;20.10;;;;;;;21.27;36.63;100197.38;5342461;26;20029;-82
2021/04/02 10:23:50;;;;;;;28.95;19.15;;;;;;;21.33;36.32;100203.22;5342209;26;20116;-83
2021/04/02 10:26:18;;;;;;;24.37;19.62;;;;;;;20.81;36.36;100195.28;5342016;26;20108;-83
2021/04/02 10:28:45;;;;;;;25.33;19.42;;;;;;;20.51;36.95;100200.34;5342176;26;20113;-82
2021/04/02 10:31:12;;;;;;;22.67;19.23;;;;;;;20.48;36.87;100196.97;5342096;26;20116;-82
2021/04/02 10:33:42;;;;;;;24.42;21.35;;;;;;;20.77;36.31;100190.19;5342337;26;20060;-83
2021/04/02 10:36:09;;;;;;;26.45;20.70;;;;;;;20.33;37.40;100186.09;5322067;26;20060;-82
2021/04/02 10:38:35;;;;;;;28.98;20.88;;;;;;;20.62;37.33;100190.03;5341965;26;20113;-82
2021/04/02 10:41:02;;;;;;;30.42;22.92;;;;;;;20.07;38.39;100197.19;5341750;26;20064;-82
2021/04/02 10:43:30;;;;;;;30.30;22.58;;;;;;;19.69;38.46;100206.06;5342102;26;20128;-82
2021/04/02 10:45:57;;;;;;;24.98;20.98;;;;;;;19.50;37.94;100199.81;5341928;26;20130;-81
2021/04/02 10:48:23;;;;;;;29.52;21.92;;;;;;;19.57;38.06;100189.75;5341951;26;20056;-82
2021/04/02 10:50:51;;;;;;;25.05;20.92;;;;;;;20.16;36.54;100197.59;5342056;26;20056;-82
2021/04/02 10:53:17;;;;;;;27.90;21.95;;;;;;;21.17;35.04;100191.62;5321667;26;20137;-82
2021/04/02 10:55:44;;;;;;;26.58;21.70;;;;;;;21.13;35.58;100183.88;5341530;26;20107;-82
2021/04/02 10:58:11;;;;;;;25.00;20.45;;;;;;;21.55;34.11;100184.25;5341997;26;20074;-81
2021/04/02 11:35:33;;;;;;;28.00;22.67;;;;;;;22.37;30.05;100155.63;5330725;26;20069;-81
2021/04/02 11:38:01;;;;;;;28.90;20.88;;;;;;;21.60;31.18;100154.59;5322024;26;20382;-82
2021/04/02 11:40:28;;;;;;;29.63;22.52;;;;;;;22.25;30.23;100154.50;5321698;26;20456;-82
2021/04/02 11:42:54;;;;;;;27.83;21.35;;;;;;;20.70;32.69;100154.06;5341703;26;20064;-81
2021/04/02 11:45:22;;;;;;;26.77;22.75;;;;;;;21.58;30.97;100152.97;5321839;26;20742;-82
2021/04/02 11:47:49;;;;;;;28.10;21.80;;;;;;;21.95;30.36;100144.59;5341893;26;20457;-81
2021/04/02 11:50:15;;;;;;;31.95;22.52;;;;;;;22.10;31.73;100144.66;5341871;26;20143;-82
2021/04/02 11:52:42;;;;;;;33.75;21.83;;;;;;;22.38;29.46;100141.28;5341534;26;20378;-82
2021/04/02 11:55:10;;;;;;;26.98;21.12;;;;;;;22.30;29.82;100143.56;5341679;26;20090;-82
2021/04/02 11:57:37;;;;;;;32.97;23.73;;;;;;;22.89;29.32;100147.16;5341468;26;20060;-82
2021/04/02 12:00:06;;;;;;;34.33;22.77;;;;;;;22.60;29.54;100147.09;5321745;26;20060;-82
2021/04/02 12:02:33;;;;;;;27.50;22.08;;;;;;;22.68;29.92;100152.84;5341539;26;20064;-82
2021/04/02 12:05:00;;;;;;;31.83;22.33;;;;;;;22.06;30.00;100140.44;5341517;26;20125;-82
2021/04/02 12:07:26;;;;;;;30.10;22.83;;;;;;;22.10;32.10;100139.31;5341986;26;20114;-82
2021/04/02 12:09:52;;;;;;;31.17;23.02;;;;;;;21.65;30.60;100143.62;5342585;26;20056;-82
2021/04/02 12:12:19;;;;;;;31.52;22.92;;;;;;;22.31;30.26;100146.13;5342437;26;20054;-82
2021/04/02 12:14:45;;;;;;;31.85;23.38;;;;;;;22.38;29.58;100147.50;5342401;26;20657;-83
2021/04/02 12:17:12;;;;;;;38.58;25.55;;;;;;;22.76;29.46;100146.16;5342428;26;20124;-83
2021/04/02 12:19:39;;;;;;;30.00;23.05;;;;;;;22.61;29.07;100146.13;5342139;26;20063;-83
2021/04/02 12:22:05;;;;;;;36.15;26.58;;;;;;;23.69;28.14;100139.50;5342415;26;20068;-82
2021/04/02 12:24:32;;;;;;;34.95;25.45;;;;;;;22.70;30.27;100144.72;5342592;26;20088;-83
2021/04/02 12:26:59;;;;;;;37.35;25.50;;;;;;;22.25;30.46;100138.47;5342507;26;20065;-82
2021/04/02 12:29:25;;;;;;;36.42;24.40;;;;;;;21.95;31.71;100144.59;5342365;26;20066;-83
2021/04/02 12:31:52;;;;;;;34.33;25.37;;;;;;;22.06;30.91;100140.44;5342561;26;20418;-83
2021/04/02 12:34:18;;;;;;;36.08;25.70;;;;;;;21.42;32.02;100136.91;5342207;26;20066;-83
2021/04/02 12:36:45;;;;;;;34.70;26.67;;;;;;;22.33;30.26;100133.53;5342910;26;20068;-82
2021/04/02 12:39:12;;;;;;;35.03;25.27;;;;;;;21.90;31.55;100121.72;5342420;26;20048;-82
2021/04/02 12:41:38;;;;;;;33.15;26.02;;;;;;;21.77;31.39;100117.09;5342273;26;20052;-83
2021/04/02 12:44:05;;;;;;;34.53;24.90;;;;;;;21.54;30.78;100131.75;5342562;26;20441;-83
2021/04/02 12:46:32;;;;;;;32.70;24.50;;;;;;;21.25;31.70;100130.62;5343412;26;20480;-84
2021/04/02 12:48:58;;;;;;;31.80;23.55;;;;;;;21.36;31.54;100126.53;5343177;26;20052;-83
2021/04/02 12:51:24;;;;;;;34.03;25.35;;;;;;;22.26;31.82;100118.75;5342753;26;20119;-83
2021/04/02 12:53:51;;;;;;;31.30;21.62;;;;;;;21.05;31.64;100122.81;5342535;26;20072;-83
2021/04/02 12:56:17;;;;;;;29.80;22.90;;;;;;;22.61;31.80;100123.84;5342780;26;20190;-83
2021/04/02 12:58:44;;;;;;;35.53;22.20;;;;;;;23.15;29.39;100118.78;5342940;26;20127;-83
2021/04/02 13:01:10;;;;;;;32.60;23.05;;;;;;;23.21;29.81;100120.22;5342599;26;20056;-83
2021/04/02 13:03:37;;;;;;;31.98;21.62;;;;;;;21.63;29.66;100118.81;5342563;26;20067;-83
2021/04/02 13:06:05;;;;;;;31.00;21.50;;;;;;;21.46;29.85;100112.59;5342395;26;20072;-82
2021/04/02 13:08:32;;;;;;;31.23;23.17;;;;;;;22.36;29.55;100103.91;5342223;26;20076;-83
2021/04/02 13:11:00;;;;;;;32.88;21.52;;;;;;;21.85;29.07;100108.59;5342489;26;20052;-83
2021/04/02 13:13:27;;;;;;;31.15;20.27;;;;;;;20.87;30.59;100103.31;5342373;26;20076;-82
2021/04/02 13:15:54;;;;;;;29.10;20.85;;;;;;;20.37;31.63;100110.28;5342293;26;20059;-82
2021/04/02 13:18:20;;;;;;;32.55;21.80;;;;;;;20.34;31.33;100109.59;5342239;26;20068;-83
2021/04/02 13:20:47;;;;;;;26.85;18.87;;;;;;;21.10;31.20;100097.59;5342390;26;20142;-83
2021/04/02 13:23:13;;;;;;;24.00;18.95;;;;;;;21.32;30.55;100105.31;5343268;26;20115;-83
2021/04/02 13:25:40;;;;;;;26.02;20.05;;;;;;;20.86;30.80;100090.91;5343411;26;20071;-83
2021/04/02 13:28:07;;;;;;;34.92;22.13;;;;;;;21.33;30.20;100095.50;5343287;26;20057;-83
2021/04/02 13:30:34;;;;;;;33.25;21.62;;;;;;;20.72;30.66;100091.63;5343789;26;20107;-83
2021/04/02 13:33:02;;;;;;;26.30;19.67;;;;;;;20.46;31.56;100082.28;5344401;26;20060;-83
2021/04/02 13:35:35;;;;;;;31.08;20.70;;;;;;;20.03;32.51;100092.47;5343471;26;20108;-82
2021/04/02 13:38:02;;;;;;;34.72;22.58;;;;;;;19.70;34.05;100077.16;5343526;26;20070;-83
2021/04/02 13:40:29;;;;;;;37.40;21.62;;;;;;;19.71;33.02;100088.72;5343465;26;20055;-82
2021/04/02 13:42:56;;;;;;;31.12;21.62;;;;;;;20.53;32.56;100077.50;5343494;26;20177;-83
2021/04/02 13:45:23;;;;;;;32.58;20.95;;;;;;;19.85;32.87;100080.03;5343676;26;20126;-82
2021/04/02 13:47:49;;;;;;;26.33;20.90;;;;;;;20.61;32.92;100070.81;5324565;26;20060;-83
2021/04/02 13:50:19;;;;;;;27.35;19.58;;;;;;;20.27;32.68;100066.38;5343291;26;20067;-83
2021/04/02 13:52:46;;;;;;;34.67;20.15;;;;;;;20.52;33.05;100076.66;5344412;26;20114;-83
2021/04/02 13:55:14;;;;;;;36.28;21.52;;;;;;;20.77;32.48;100068.22;5324586;26;20075;-83
2021/04/02 13:57:41;;;;;;;24.75;18.23;;;;;;;20.59;32.29;100059.38;5344157;26;20711;-83
2021/04/02 14:00:10;;;;;;;28.38;19.95;;;;;;;21.07;31.95;100063.03;5344096;26;20052;-83
2021/04/02 14:02:38;;;;;;;28.60;18.98;;;;;;;21.33;31.02;100074.09;5344699;26;20101;-82
2021/04/02 14:05:05;;;;;;;27.65;19.45;;;;;;;21.83;31.56;100059.72;5344180;26;20086;-83
2021/04/02 14:07:32;;;;;;;30.70;19.37;;;;;;;21.61;30.82;100052.06;5344640;26;20048;-82
2021/04/02 14:09:59;;;;;;;26.05;17.95;;;;;;;21.36;30.26;100049.91;5324100;26;20100;-82
2021/04/02 14:12:26;;;;;;;29.65;18.87;;;;;;;21.00;31.33;100052.75;5343989;26;20120;-82
2021/04/02 14:14:52;;;;;;;28.52;18.80;;;;;;;21.44;30.82;100044.13;5344165;26;20095;-83
2021/04/02 14:17:20;;;;;;;26.62;18.77;;;;;;;21.42;29.85;100044.22;5343738;26;20051;-83
2021/04/02 14:19:47;;;;;;;26.10;18.58;;;;;;;21.74;30.04;100036.19;5343594;26;20064;-83
2021/04/02 14:22:13;;;;;;;26.85;18.73;;;;;;;21.13;30.05;100018.25;5343553;26;20717;-83
2021/04/02 14:24:40;;;;;;;24.73;17.52;;;;;;;20.81;30.64;100036.87;5342850;26;20024;-83
2021/04/02 14:27:08;;;;;;;28.87;17.92;;;;;;;21.36;30.58;100035.66;5342767;26;20112;-83
2021/04/02 14:29:35;;;;;;;28.90;18.45;;;;;;;21.36;30.27;100031.22;5343422;26;20483;-83
2021/04/02 14:32:02;;;;;;;22.58;17.45;;;;;;;20.51;31.23;100034.03;5342197;26;20402;-83
2021/04/02 14:34:28;;;;;;;24.12;17.10;;;;;;;20.57;30.88;100031.06;5342393;26;20060;-83
2021/04/02 14:36:54;;;;;;;26.92;18.87;;;;;;;20.50;31.01;100033.16;5342493;26;20078;-83
2021/04/02 14:39:21;;;;;;;25.25;17.10;;;;;;;20.57;30.56;100020.37;5342956;26;20421;-83
2021/04/02 14:41:48;;;;;;;26.83;16.92;;;;;;;20.33;31.34;100026.03;5323032;26;20080;-83
2021/04/02 14:44:14;;;;;;;23.02;16.42;;;;;;;19.51;32.41;100023.03;5323276;26;20078;-83
2021/04/02 14:46:45;;;;;;;25.98;16.60;;;;;;;20.21;31.61;100018.66;5343633;26;20051;-83
2021/04/02 14:49:11;;;;;;;24.52;15.32;;;;;;;19.65;32.14;100020.59;5344072;26;20056;-84
2021/04/02 14:51:38;;;;;;;25.25;16.05;;;;;;;19.94;30.90;100015.59;5343747;26;20088;-83
2021/04/02 14:54:04;;;;;;;27.55;16.17;;;;;;;19.44;31.73;100021.56;5343056;26;20078;-84
2021/04/02 14:56:31;;;;;;;23.33;16.62;;;;;;;19.28;31.57;100014.34;5344731;26;20170;-83
2021/04/02 14:58:57;;;;;;;26.40;16.60;;;;;;;19.28;31.95;100009.00;5343403;26;20063;-83
2021/04/02 15:01:25;;;;;;;19.98;14.52;;;;;;;19.23;31.85;100015.47;5343225;26;20080;-83
2021/04/02 15:03:51;;;;;;;24.45;15.55;;;;;;;19.34;32.22;100005.19;5343066;26;20098;-84
2021/04/02 15:06:18;;;;;;;22.50;15.93;;;;;;;19.61;31.41;100002.97;5343198;26;20481;-84
2021/04/02 15:08:45;;;;;;;24.20;16.48;;;;;;;19.00;31.64;99996.16;5342098;26;20123;-83
2021/04/02 15:11:12;;;;;;;25.45;16.95;;;;;;;18.86;32.07;100000.41;5342339;26;20079;-83
2021/04/02 15:13:38;;;;;;;17.92;13.23;;;;;;;19.11;32.13;99995.63;5342311;26;20483;-83
2021/04/02 15:16:05;;;;;;;22.02;15.38;;;;;;;20.03;31.73;99990.25;5342393;26;20061;-83
2021/04/02 15:18:31;;;;;;;19.73;14.02;;;;;;;19.49;31.79;99982.25;5322472;26;20072;-83
2021/04/02 15:20:59;;;;;;;22.62;14.38;;;;;;;19.50;30.50;99989.31;5342082;26;20056;-84
2021/04/02 15:23:25;;;;;;;20.10;14.57;;;;;;;19.18;31.07;99985.56;5342470;26;20075;-83
2021/04/02 15:25:52;;;;;;;21.87;14.65;;;;;;;19.66;31.26;99985.00;5342549;26;20123;-83
2021/04/02 15:28:18;;;;;;;19.00;13.43;;;;;;;19.57;30.69;99990.75;5342278;26;20597;-84
2021/04/02 15:30:45;;;;;;;20.02;13.98;;;;;;;19.21;30.77;99988.94;5342139;26;20420;-83
2021/04/02 15:33:12;;;;;;;18.58;13.38;;;;;;;19.25;31.14;99979.00;5341816;26;20093;-83
2021/04/02 15:35:39;;;;;;;24.33;14.32;;;;;;;19.25;31.29;99985.19;5341767;26;20066;-83
2021/04/02 15:38:06;;;;;;;20.25;13.85;;;;;;;19.11;31.47;99974.31;5341746;26;20135;-83
2021/04/02 15:40:38;;;;;;;19.45;14.15;;;;;;;19.11;31.09;99979.66;5341961;26;20114;-83
2021/04/02 15:43:04;;;;;;;22.60;14.95;;;;;;;19.04;31.28;99979.09;5340335;26;20082;-83
2021/04/02 15:45:31;;;;;;;19.05;14.25;;;;;;;18.48;31.60;99981.69;5342028;26;20051;-83
2021/04/02 15:47:57;;;;;;;23.20;14.20;;;;;;;18.43;31.44;99975.69;5341709;26;20071;-84
2021/04/02 15:50:25;;;;;;;20.70;13.77;;;;;;;18.36;32.17;99975.12;5341773;26;20060;-84
2021/04/02 16:33:14;;;;;;;36.97;26.20;;;;;;;17.03;32.39;99995.66;5312823;26;20142;-83
2021/04/02 16:36:01;;;;;;;25.37;16.77;;;;;;;17.30;32.21;99995.50;5325064;26;20422;-82
2021/04/02 16:38:29;;;;;;;44.10;27.92;;;;;;;17.47;31.87;99995.69;5323177;26;20079;-82
2021/04/02 16:40:56;;;;;;;57.65;36.67;;;;;;;17.46;31.54;99990.41;5322961;26;20051;-82
2021/04/02 16:43:23;;;;;;;39.08;23.87;;;;;;;17.73;31.64;99991.06;5322737;26;20071;-82
2021/04/02 16:45:51;;;;;;;63.35;36.53;;;;;;;17.58;31.44;99992.56;5342006;26;20406;-82
2021/04/02 16:48:19;;;;;;;58.73;38.83;;;;;;;17.69;31.49;99998.31;5323465;26;20395;-82
2021/04/02 16:50:54;;;;;;;23.98;17.37;;;;;;;17.73;31.55;99987.56;5324138;26;20055;-83
2021/04/02 16:53:21;;;;;;;27.85;22.35;;;;;;;17.65;31.58;99982.56;5322236;26;20075;-83
2021/04/02 16:55:48;;;;;;;24.85;20.17;;;;;;;17.65;31.54;99990.53;5323181;26;20055;-83
2021/04/02 16:58:14;;;;;;;17.95;15.85;;;;;;;17.56;31.72;99989.12;5323376;26;20154;-84
2021/04/02 17:00:41;;;;;;;18.65;14.68;;;;;;;17.60;31.68;99988.06;5343025;26;20068;-83
2021/04/02 17:03:07;;;;;;;17.45;12.40;;;;;;;17.57;31.28;99982.03;5342804;26;20100;-83
2021/04/02 17:05:34;;;;;;;17.87;13.65;;;;;;;17.05;31.84;99989.41;5343107;26;20702;-84
2021/04/02 17:08:00;;;;;;;20.25;14.05;;;;;;;16.78;32.53;99994.84;5343423;26;20198;-83
2021/04/02 17:10:27;;;;;;;25.45;18.87;;;;;;;16.84;32.48;99994.63;5343636;26;20064;-83
2021/04/02 17:12:53;;;;;;;33.78;21.42;;;;;;;16.80;32.57;99991.22;5342766;26;20630;-82
2021/04/02 17:15:20;;;;;;;32.15;21.05;;;;;;;17.15;32.00;99991.66;5342557;26;20099;-82
2021/04/02 17:17:47;;;;;;;15.25;11.12;;;;;;;17.75;31.34;99994.53;5342198;26;20049;-83
2021/04/02 17:20:17;;;;;;;18.27;12.70;;;;;;;16.77;32.52;99998.44;5342409;26;20052;-82
2021/04/02 17:22:44;;;;;;;19.85;13.52;;;;;;;17.28;31.49;100007.94;5342351;26;20075;-82
2021/04/02 17:25:12;;;;;;;17.58;12.65;;;;;;;17.69;31.04;100006.28;5342518;26;20074;-82
2021/04/02 17:27:39;;;;;;;23.30;16.75;;;;;;;18.11;30.49;99993.94;5342135;26;20048;-82
2021/04/02 17:30:09;;;;;;;17.37;14.75;;;;;;;18.23;30.36;99985.41;5322386;26;20064;-82
2021/04/02 17:32:36;;;;;;;19.92;12.25;;;;;;;18.36;30.03;99988.41;5341908;26;20053;-81
2021/04/02 17:35:03;;;;;;;29.10;13.35;;;;;;;18.44;30.01;99998.69;5342083;26;20091;-82
2021/04/02 17:37:29;;;;;;;18.67;11.55;;;;;;;18.30;30.40;100010.81;5342255;26;20096;-82
2021/04/02 17:39:56;;;;;;;17.52;13.10;;;;;;;18.35;30.34;100008.84;5342158;26;20059;-82
2021/04/02 17:42:23;;;;;;;26.77;17.42;;;;;;;18.13;30.15;100014.19;5342478;26;20078;-83
2021/04/02 17:44:50;;;;;;;24.87;17.52;;;;;;;18.14;30.43;100021.25;5342260;26;20526;-82
2021/04/02 17:47:19;;;;;;;35.78;20.88;;;;;;;18.28;30.13;100014.47;5342185;26;20056;-83
2021/04/02 17:49:47;;;;;;;20.75;13.70;;;;;;;18.45;29.91;100014.59;5341925;26;20053;-82
2021/04/02 17:52:17;;;;;;;21.80;15.35;;;;;;;18.07;30.32;100009.16;5342214;26;20064;-82
2021/04/02 17:54:46;;;;;;;21.02;16.55;;;;;;;18.02;30.70;100013.78;5340697;26;20104;-83
2021/04/02 17:57:13;;;;;;;18.90;15.00;;;;;;;17.58;31.44;100015.62;5322232;26;20061;-82
2021/04/02 17:59:40;;;;;;;18.87;14.40;;;;;;;17.56;31.57;100023.66;5322138;26;20049;-82
2021/04/02 18:02:08;;;;;;;18.67;14.73;;;;;;;17.56;31.58;100026.31;5342148;26;20560;-83
2021/04/02 18:04:35;;;;;;;23.75;17.62;;;;;;;16.98;32.44;100032.09;5342002;26;20076;-83
2021/04/02 18:07:04;;;;;;;23.65;15.80;;;;;;;17.16;32.49;100027.03;5342424;26;20765;-83
2021/04/02 18:09:30;;;;;;;27.80;19.05;;;;;;;17.35;32.09;100027.16;5342213;26;20055;-82
2021/04/02 18:11:56;;;;;;;83.37;45.20;;;;;;;16.93;32.95;100028.75;5342278;26;20082;-83
2021/04/02 18:14:23;;;;;;;42.70;28.50;;;;;;;17.08;32.80;100026.44;5342272;26;20056;-83
2021/04/02 18:16:55;;;;;;;37.15;25.35;;;;;;;17.08;32.93;100034.41;5342336;26;20067;-83
2021/04/02 18:19:22;;;;;;;27.75;20.62;;;;;;;17.19;32.89;100037.53;5322402;26;20056;-83
2021/04/02 18:21:50;;;;;;;47.15;30.70;;;;;;;17.10;33.21;100043.19;5341921;26;20105;-83
2021/04/02 18:24:19;;;;;;;39.67;29.58;;;;;;;17.29;32.99;100046.00;5342261;26;20060;-82
2021/04/02 18:26:47;;;;;;;39.55;28.25;;;;;;;16.77;34.14;100046.19;5342620;26;20076;-84
2021/04/02 18:29:14;;;;;;;152.23;38.80;;;;;;;17.05;33.98;100053.97;5342304;26;20059;-83
2021/04/02 18:31:41;;;;;;;33.58;25.15;;;;;;;17.14;34.04;100050.09;5343198;26;20060;-84
2021/04/02 18:34:09;;;;;;;35.05;23.02;;;;;;;17.16;33.91;100051.78;5343359;26;20057;-84
2021/04/02 18:36:36;;;;;;;30.48;20.73;;;;;;;17.06;34.16;100053.06;5323232;26;20053;-84
2021/04/02 18:39:04;;;;;;;28.35;21.27;;;;;;;16.72;34.89;100050.75;5343366;26;20035;-83
2021/04/02 18:41:31;;;;;;;27.85;22.73;;;;;;;16.80;34.78;100051.38;5342406;26;20071;-83
2021/04/02 18:43:58;;;;;;;24.27;19.87;;;;;;;16.74;34.83;100055.09;5342359;26;20074;-83
2021/04/02 18:46:24;;;;;;;25.75;20.12;;;;;;;16.47;35.17;100049.00;5322385;26;20052;-83
2021/04/02 18:48:51;;;;;;;27.85;24.80;;;;;;;16.48;35.32;100048.06;5343388;26;20100;-83
2021/04/02 18:51:18;;;;;;;27.90;21.48;;;;;;;16.43;35.47;100043.84;5342296;26;20199;-82
2021/04/02 18:53:44;;;;;;;24.63;19.83;;;;;;;16.61;35.12;100050.28;5322305;26;20319;-83
2021/04/02 18:56:11;;;;;;;25.35;18.87;;;;;;;16.40;35.69;100046.63;5342420;26;20048;-83
2021/04/02 18:58:38;;;;;;;25.62;19.23;;;;;;;16.33;35.92;100051.28;5342053;26;20385;-82
2021/04/02 19:01:05;;;;;;;28.80;20.70;;;;;;;16.24;36.04;100054.25;5342179;26;20414;-83
2021/04/02 19:03:32;;;;;;;31.25;22.05;;;;;;;15.85;37.00;100046.69;5343047;26;20059;-84
2021/04/02 19:05:59;;;;;;;26.37;19.80;;;;;;;16.03;36.69;100051.41;5324071;26;20070;-83
2021/04/02 19:08:25;;;;;;;26.00;19.00;;;;;;;15.34;38.11;100050.94;5342664;26;20030;-83
2021/04/02 19:10:53;;;;;;;40.33;31.87;;;;;;;14.96;38.93;100054.72;5342440;26;20064;-82
2021/04/02 19:13:19;;;;;;;48.80;30.67;;;;;;;14.60;39.74;100054.88;5342052;26;20056;-82
2021/04/02 19:15:46;;;;;;;42.75;28.48;;;;;;;14.69;39.76;100059.03;5341995;26;20053;-84
2021/04/02 19:18:12;;;;;;;43.90;31.83;;;;;;;14.63;39.69;100048.66;5341558;26;20387;-83
2021/04/02 19:20:39;;;;;;;41.78;28.35;;;;;;;14.41;40.07;100051.84;5342192;26;20746;-83
2021/04/02 19:23:05;;;;;;;37.30;27.23;;;;;;;14.21;40.73;100055.03;5341945;26;20120;-83
2021/04/02 19:25:32;;;;;;;43.10;30.98;;;;;;;14.07;40.84;100057.16;5322104;26;20052;-83
2021/04/02 19:27:59;;;;;;;33.00;26.75;;;;;;;14.28;40.74;100055.72;5342070;26;20196;-82
2021/04/02 19:30:29;;;;;;;29.27;20.58;;;;;;;14.22;40.70;100064.66;5342003;26;20052;-83
2021/04/02 19:32:55;;;;;;;30.67;24.12;;;;;;;14.37;40.49;100058.09;5341902;26;20107;-83
2021/04/02 19:35:22;;;;;;;30.67;23.15;;;;;;;14.81;39.29;100060.47;5341877;26;20241;-82
2021/04/02 19:37:48;;;;;;;33.15;25.00;;;;;;;14.79;39.40;100059.62;5341617;26;20428;-83
2021/04/02 19:40:15;;;;;;;28.80;20.77;;;;;;;15.14;38.64;100064.75;5341770;26;20052;-82
2021/04/02 19:42:42;;;;;;;31.42;23.35;;;;;;;15.03;38.75;100066.00;5341959;26;20119;-82
2021/04/02 19:45:11;;;;;;;24.35;18.50;;;;;;;15.11;38.63;100062.22;5321838;26;20115;-83
2021/04/02 19:47:38;;;;;;;28.27;22.55;;;;;;;15.26;38.18;100070.63;5341695;26;20435;-82
2021/04/02 19:50:06;;;;;;;24.65;19.33;;;;;;;15.53;37.49;100068.88;5341587;26;20713;-83
2021/04/02 19:52:32;;;;;;;28.85;19.58;;;;;;;15.70;37.02;100073.69;5341712;26;20143;-83
2021/04/02 19:54:59;;;;;;;25.45;19.12;;;;;;;15.73;37.27;100068.28;5341702;26;20064;-83
2021/04/02 19:57:25;;;;;;;23.67;16.10;;;;;;;15.89;37.04;100077.50;5341584;26;20063;-83
2021/04/02 19:59:52;;;;;;;23.67;17.75;;;;;;;15.79;37.22;100074.25;5341689;26;20056;-82
2021/04/02 20:02:18;;;;;;;23.65;16.33;;;;;;;15.75;37.68;100077.94;5341716;26;20074;-83
2021/04/02 20:04:45;;;;;;;21.80;16.67;;;;;;;16.08;38.92;100075.09;5341581;26;20049;-83
2021/04/02 20:07:11;;;;;;;22.73;17.87;;;;;;;15.67;38.09;100074.63;5341501;26;20059;-83
2021/04/02 20:09:37;;;;;;;23.42;17.70;;;;;;;15.24;38.26;100080.41;5341583;26;20120;-83
2021/04/02 20:12:04;;;;;;;20.20;15.80;;;;;;;15.13;38.66;100073.63;5341644;26;20411;-83